This is the latest recevied weather packets stored in our database for station/object KD8NVS-13. If no packets are shown the sender has not sent any weather packets the latest 10 day(s).
| Time | Temp. | Humidity | Pressure | Rain* | Wind** | Luminosity | Snow |
|---|---|---|---|---|---|---|---|
| 1778151996 | 6.11° C | 99% | 1003.8 hPa | 0 mm | - | 37 W/m² | - |
| 1778151693 | 5.56° C | 98% | 1003.8 hPa | 0 mm | - | 32 W/m² | - |
| 1778151390 | 4.44° C | 98% | 1004.2 hPa | 0 mm | - | 27 W/m² | - |
| 1778151086 | 3.33° C | 98% | 1003.8 hPa | 0 mm | - | 21 W/m² | - |
| 1778150783 | 3.33° C | 98% | 1004.2 hPa | 0 mm | - | 16 W/m² | - |
| 1778150480 | 3.33° C | 98% | 1004.2 hPa | 0 mm | - | 10 W/m² | - |
| 1778150176 | 3.33° C | 98% | 1004.2 hPa | 0 mm | - | 6 W/m² | - |
| 1778149873 | 3.33° C | 98% | 1004.2 hPa | 0 mm | - | 4 W/m² | - |
| 1778149569 | 2.78° C | 98% | 1003.8 hPa | 0 mm | - | 3 W/m² | - |
| 1778149265 | 2.78° C | 97% | 1004.2 hPa | 0 mm | - | 2 W/m² | - |
| 1778148961 | 3.33° C | 97% | 1003.8 hPa | 0 mm | - | 1 W/m² | - |
| 1778148657 | 2.78° C | 97% | 1003.8 hPa | 0 mm | - | 0 W/m² | - |
| 1778148355 | 2.78° C | 97% | 1003.8 hPa | 0 mm | - | 0 W/m² | - |
| 1778148053 | 2.78° C | 97% | 1003.8 hPa | 0 mm | - | 0 W/m² | - |
| 1778147750 | 2.78° C | 97% | 1003.8 hPa | 0 mm | - | 0 W/m² | - |
| 1778147447 | 2.78° C | 97% | 1003.8 hPa | 0 mm | - | 0 W/m² | - |
| 1778147143 | 2.78° C | 97% | 1003.8 hPa | 0 mm | - | 0 W/m² | - |
| 1778146840 | 2.78° C | 97% | 1003.5 hPa | 0 mm | - | 0 W/m² | - |
| 1778146538 | 2.78° C | 97% | 1003.5 hPa | 0 mm | - | 0 W/m² | - |
| 1778146236 | 2.78° C | 97% | 1003.8 hPa | 0 mm | - | 0 W/m² | - |
| 1778145932 | 2.78° C | 97% | 1003.5 hPa | 0 mm | - | 0 W/m² | - |
| 1778145629 | 3.33° C | 97% | 1003.8 hPa | 0 mm | - | 0 W/m² | - |
| 1778145326 | 3.33° C | 97% | 1003.8 hPa | 0 mm | - | 0 W/m² | - |
| 1778145022 | 3.33° C | 97% | 1003.8 hPa | 0 mm | - | 0 W/m² | - |
| 1778144718 | 2.78° C | 97% | 1003.8 hPa | 0 mm | - | 0 W/m² | - |
* Rain latest hour (hover to see other rain measurements)
** Current wind speed in m/s (hover to see current wind gust speed)